Time;durP1;ratioP1;P1;durP2;ratioP2;P2;SDS_P1;SDS_P2;PMS_P1;PMS_P2;Temp;Humidity;BMP_temperature;BMP_pressure;BME280_temperature;BME280_humidity;BME280_pressure;Samples;Min_cycle;Max_cycle;Signal;HPM_P1;HPM_P2
2023/09/04 00:02:17;;;;;;;5.03;3.50;;;;;;;25.22;46.83;102848.31;5073094;28;20032;-76
2023/09/04 00:04:42;;;;;;;5.55;3.80;;;;;;;25.23;47.17;102844.69;5074592;28;20103;-76
2023/09/04 00:07:08;;;;;;;5.13;3.63;;;;;;;25.13;47.01;102850.47;5072930;28;20043;-76
2023/09/04 00:09:34;;;;;;;5.28;3.92;;;;;;;24.94;47.36;102845.00;5054518;28;20028;-76
2023/09/04 00:11:59;;;;;;;11.23;4.80;;;;;;;24.84;47.70;102842.69;5054748;28;20459;-76
2023/09/04 00:14:25;;;;;;;6.25;4.20;;;;;;;25.12;47.36;102835.38;5056232;28;20060;-76
2023/09/04 00:16:50;;;;;;;7.20;4.70;;;;;;;25.06;47.19;102825.81;5041529;28;20029;-76
2023/09/04 00:19:17;;;;;;;8.57;4.57;;;;;;;24.96;47.31;102829.75;5035817;28;20029;-76
2023/09/04 00:21:42;;;;;;;5.82;3.67;;;;;;;24.94;47.25;102827.16;5036592;28;20071;-76
2023/09/04 00:24:08;;;;;;;7.63;4.45;;;;;;;25.12;47.23;102835.38;5036296;28;20032;-76
2023/09/04 00:26:33;;;;;;;5.82;3.80;;;;;;;25.21;46.87;102832.31;5047446;28;20505;-75
2023/09/04 00:28:59;;;;;;;5.82;3.67;;;;;;;24.89;47.83;102842.50;5055203;28;20028;-76
2023/09/04 00:31:24;;;;;;;9.27;3.90;;;;;;;24.87;47.29;102837.22;5055831;28;20024;-76
2023/09/04 00:33:49;;;;;;;8.90;4.47;;;;;;;24.83;47.84;102838.25;5056313;28;20067;-76
2023/09/04 00:36:15;;;;;;;7.45;4.53;;;;;;;24.99;47.71;102835.88;5048260;28;20041;-76
2023/09/04 00:38:40;;;;;;;6.55;4.78;;;;;;;24.97;47.43;102836.84;5040833;28;20377;-76
2023/09/04 00:41:06;;;;;;;7.43;4.53;;;;;;;24.71;48.04;102844.09;5049531;28;20060;-76
2023/09/04 00:43:38;;;;;;;5.68;4.13;;;;;;;24.77;47.84;102851.88;5036015;28;20404;-75
2023/09/04 00:46:05;;;;;;;5.43;3.88;;;;;;;24.83;47.95;102856.97;5056331;28;20040;-76
2023/09/04 00:48:33;;;;;;;5.47;3.97;;;;;;;24.72;48.11;102848.50;5035525;28;20110;-76
2023/09/04 00:50:59;;;;;;;8.73;4.53;;;;;;;25.06;47.35;102847.19;5053455;28;20033;-76
2023/09/04 00:53:27;;;;;;;6.75;4.47;;;;;;;25.12;46.49;102841.59;5035562;28;20123;-76
2023/09/04 00:55:52;;;;;;;6.22;4.15;;;;;;;25.03;47.75;102850.88;5048036;28;20028;-76
2023/09/04 00:58:18;;;;;;;7.72;3.88;;;;;;;24.81;47.74;102834.78;5054493;28;20365;-76
2023/09/04 01:00:44;;;;;;;7.65;4.63;;;;;;;24.77;47.59;102841.19;5066392;28;20149;-76
2023/09/04 01:03:12;;;;;;;7.13;4.22;;;;;;;24.47;48.47;102838.72;5079391;28;20370;-76
2023/09/04 01:05:37;;;;;;;6.47;4.28;;;;;;;24.62;48.36;102833.72;5090633;28;20024;-76
2023/09/04 01:08:04;;;;;;;7.90;4.60;;;;;;;24.76;48.14;102836.75;5092491;28;20195;-75
2023/09/04 01:10:38;;;;;;;7.03;4.97;;;;;;;24.85;47.79;102823.03;5088378;28;20096;-76
2023/09/04 01:13:12;;;;;;;7.13;4.25;;;;;;;24.74;47.82;102830.59;5091098;28;20052;-76
2023/09/04 01:15:37;;;;;;;5.97;4.25;;;;;;;24.69;48.26;102829.91;5079487;28;20067;-76
2023/09/04 01:18:03;;;;;;;6.95;4.78;;;;;;;24.75;47.58;102835.00;5085120;28;20122;-76
2023/09/04 01:20:29;;;;;;;5.82;4.00;;;;;;;24.60;48.21;102838.25;5081161;28;20116;-76
2023/09/04 01:22:56;;;;;;;7.75;4.07;;;;;;;24.38;48.91;102833.69;5091873;28;20603;-76
2023/09/04 01:25:23;;;;;;;6.15;4.50;;;;;;;24.62;48.09;102831.94;5087243;28;20488;-76
2023/09/04 01:27:57;;;;;;;8.00;4.40;;;;;;;24.75;47.37;102832.34;5071219;28;20123;-76
2023/09/04 01:30:33;;;;;;;7.30;4.70;;;;;;;24.60;47.96;102830.22;5071195;28;20032;-76
2023/09/04 01:33:04;;;;;;;6.55;4.07;;;;;;;24.76;48.09;102827.84;5076624;28;20032;-76
2023/09/04 01:35:31;;;;;;;8.20;4.03;;;;;;;24.76;47.64;102820.72;5089524;28;20028;-76
2023/09/04 01:37:58;;;;;;;8.18;4.50;;;;;;;24.02;49.25;102821.63;5090224;28;20020;-76
2023/09/04 01:40:24;;;;;;;7.13;4.90;;;;;;;24.22;48.85;102825.38;5090438;28;20081;-76
2023/09/04 01:42:49;;;;;;;7.25;4.13;;;;;;;24.13;49.14;102829.25;5090797;28;20020;-76
2023/09/04 01:45:15;;;;;;;7.45;4.82;;;;;;;23.77;49.94;102832.25;5090716;28;20119;-76
2023/09/04 01:47:40;;;;;;;8.00;4.28;;;;;;;24.05;49.07;102825.97;5091178;28;20070;-76
2023/09/04 01:50:06;;;;;;;8.05;4.25;;;;;;;23.88;49.37;102830.13;5089663;28;20032;-75
2023/09/04 01:52:31;;;;;;;6.95;4.25;;;;;;;23.87;49.24;102823.00;5092441;28;20391;-76
2023/09/04 01:54:57;;;;;;;7.05;4.05;;;;;;;24.16;48.40;102826.47;5083776;28;20025;-76
2023/09/04 01:57:22;;;;;;;6.75;4.50;;;;;;;24.28;48.16;102829.63;5104759;28;20548;-76
2023/09/04 01:59:47;;;;;;;5.05;3.60;;;;;;;24.22;47.79;102828.94;5077893;28;20480;-76
2023/09/04 02:02:13;;;;;;;5.43;3.63;;;;;;;23.83;48.51;102826.69;5049456;28;20021;-76
2023/09/04 02:04:38;;;;;;;6.72;4.78;;;;;;;24.05;48.67;102820.63;5053843;28;20039;-76
2023/09/04 02:07:04;;;;;;;5.50;4.13;;;;;;;23.85;48.70;102822.19;5053191;28;20088;-76
2023/09/04 02:09:29;;;;;;;7.50;4.05;;;;;;;24.10;48.32;102824.03;5066404;28;20067;-76
2023/09/04 02:11:54;;;;;;;8.10;3.85;;;;;;;23.59;49.32;102816.88;5045072;28;20047;-76
2023/09/04 02:14:20;;;;;;;5.18;3.67;;;;;;;23.77;48.99;102826.03;5051530;28;20060;-76
2023/09/04 02:16:45;;;;;;;6.28;3.80;;;;;;;23.85;48.67;102818.63;5045370;28;20033;-76
2023/09/04 02:19:11;;;;;;;6.03;3.70;;;;;;;23.81;48.48;102817.88;5052109;28;20032;-75
2023/09/04 02:21:36;;;;;;;5.50;3.88;;;;;;;23.72;48.96;102815.53;5044072;28;20071;-76
2023/09/04 02:24:02;;;;;;;4.68;3.80;;;;;;;23.92;48.20;102812.22;5051955;28;20545;-76
2023/09/04 02:26:27;;;;;;;5.32;3.63;;;;;;;23.62;48.74;102806.09;5071089;28;20028;-76
2023/09/04 02:28:53;;;;;;;5.82;4.05;;;;;;;23.78;48.73;102804.66;5067299;28;20024;-76
2023/09/04 02:31:18;;;;;;;7.32;3.78;;;;;;;23.68;48.78;102806.75;5051127;28;20134;-76
2023/09/04 02:33:44;;;;;;;7.47;3.42;;;;;;;23.41;49.33;102803.22;5067371;28;20085;-76
2023/09/04 02:36:09;;;;;;;5.38;3.63;;;;;;;23.89;48.25;102804.28;5049476;28;20051;-76
2023/09/04 02:38:35;;;;;;;6.50;3.70;;;;;;;23.61;48.62;102796.34;5051546;28;20488;-75
2023/09/04 02:41:00;;;;;;;5.57;3.85;;;;;;;23.88;48.27;102786.53;5034160;28;20025;-75
2023/09/04 02:43:26;;;;;;;4.85;3.63;;;;;;;24.28;47.77;102792.22;5054959;28;20032;-76
2023/09/04 02:45:51;;;;;;;4.80;3.10;;;;;;;24.05;47.65;102792.13;5047612;28;20085;-76
2023/09/04 02:48:17;;;;;;;5.78;3.80;;;;;;;23.99;48.40;102775.47;5070483;28;20028;-76
2023/09/04 02:50:43;;;;;;;7.70;4.00;;;;;;;23.95;48.08;102782.72;5049904;28;20020;-76
2023/09/04 02:53:08;;;;;;;5.75;3.60;;;;;;;24.08;48.00;102776.94;5033027;28;20028;-76
2023/09/04 02:55:33;;;;;;;5.65;3.88;;;;;;;23.88;48.26;102771.38;5044509;28;20029;-76
2023/09/04 02:57:59;;;;;;;6.15;4.00;;;;;;;23.86;47.80;102766.97;5053270;28;20028;-76
2023/09/04 03:00:24;;;;;;;7.80;4.10;;;;;;;23.67;48.59;102756.09;5037118;28;20107;-76
2023/09/04 03:02:50;;;;;;;7.18;3.92;;;;;;;23.41;48.91;102757.88;5033863;28;20017;-76
2023/09/04 03:05:16;;;;;;;5.53;4.22;;;;;;;23.05;49.98;102755.44;5050067;28;20020;-76
2023/09/04 03:07:41;;;;;;;4.85;3.70;;;;;;;23.43;49.29;102764.03;5033225;28;20119;-76
2023/09/04 03:10:07;;;;;;;7.60;3.92;;;;;;;23.54;48.69;102761.84;5033574;28;20182;-76
2023/09/04 03:12:33;;;;;;;6.68;3.83;;;;;;;23.59;48.69;102756.38;5035259;28;20104;-76
2023/09/04 03:15:02;;;;;;;4.68;3.80;;;;;;;23.76;47.99;102762.91;5051132;28;20105;-76
2023/09/04 03:17:30;;;;;;;8.02;4.00;;;;;;;23.69;48.19;102754.25;5052142;28;20043;-76
2023/09/04 03:19:56;;;;;;;6.00;4.10;;;;;;;23.77;48.19;102762.84;5069597;28;20028;-76
2023/09/04 03:22:23;;;;;;;7.30;4.60;;;;;;;23.33;49.27;102759.94;5052988;28;20112;-76
2023/09/04 03:24:49;;;;;;;5.45;3.63;;;;;;;23.74;48.62;102762.97;5051299;28;20035;-76
2023/09/04 03:27:15;;;;;;;6.65;4.07;;;;;;;23.98;47.56;102755.03;5045595;28;20028;-76
2023/09/04 03:29:40;;;;;;;10.15;4.68;;;;;;;23.69;48.54;102759.59;5056475;28;20027;-76
2023/09/04 03:32:06;;;;;;;7.28;4.50;;;;;;;23.50;48.36;102757.53;5038867;28;20013;-76
2023/09/04 03:34:32;;;;;;;7.43;4.32;;;;;;;23.20;49.04;102755.00;5038747;28;20029;-76
2023/09/04 03:36:57;;;;;;;6.63;4.47;;;;;;;22.96;49.93;102763.78;5048318;28;20028;-76
2023/09/04 03:39:24;;;;;;;6.22;4.50;;;;;;;23.22;49.30;102754.94;5044248;28;20094;-76
2023/09/04 03:41:50;;;;;;;6.00;4.03;;;;;;;23.19;49.87;102755.91;5047899;28;20025;-76
2023/09/04 03:44:15;;;;;;;6.25;4.35;;;;;;;23.29;49.65;102755.63;5059279;28;20502;-76
2023/09/04 03:46:40;;;;;;;6.95;4.15;;;;;;;23.23;49.27;102756.66;5059576;28;20494;-76
2023/09/04 03:49:06;;;;;;;7.53;4.00;;;;;;;22.86;50.14;102758.72;5074972;28;20028;-76
2023/09/04 03:51:32;;;;;;;5.97;3.80;;;;;;;22.87;50.26;102744.47;5039822;28;20021;-76
2023/09/04 03:54:01;;;;;;;5.78;4.13;;;;;;;23.31;48.96;102735.09;5039426;28;20059;-75
2023/09/04 03:56:28;;;;;;;7.70;3.50;;;;;;;23.55;48.35;102742.25;5050690;28;20028;-76
2023/09/04 03:58:53;;;;;;;8.13;4.38;;;;;;;23.03;49.54;102738.66;5053693;28;20051;-76
2023/09/04 04:01:18;;;;;;;5.32;3.88;;;;;;;23.32;49.22;102736.84;5080779;28;20458;-78
2023/09/04 04:03:44;;;;;;;7.40;5.03;;;;;;;23.36;49.51;102736.66;5096288;28;20089;-76
2023/09/04 04:06:13;;;;;;;6.25;4.57;;;;;;;23.66;49.11;102738.34;5092195;28;20037;-75
2023/09/04 04:08:38;;;;;;;6.50;4.43;;;;;;;23.37;48.71;102740.22;5077645;28;20020;-75
2023/09/04 04:11:04;;;;;;;5.65;3.95;;;;;;;23.08;49.67;102734.03;5093440;28;20031;-76
2023/09/04 04:13:29;;;;;;;7.13;4.15;;;;;;;23.44;48.35;102736.41;5080334;28;20101;-75
2023/09/04 04:15:59;;;;;;;7.15;3.72;;;;;;;23.54;48.03;102734.28;5080250;28;20345;-76
2023/09/04 04:18:26;;;;;;;6.32;4.18;;;;;;;23.43;48.32;102731.13;5088832;28;20028;-77
2023/09/04 04:20:52;;;;;;;7.38;5.18;;;;;;;23.31;48.39;102737.75;5081393;28;20542;-76
2023/09/04 04:23:17;;;;;;;6.30;4.15;;;;;;;23.11;48.83;102736.59;5086629;28;20023;-76
2023/09/04 04:25:43;;;;;;;8.10;4.75;;;;;;;23.11;49.04;102735.72;5097654;28;20077;-76
2023/09/04 04:28:09;;;;;;;8.00;4.82;;;;;;;22.78;49.57;102734.09;5096295;28;20056;-76
2023/09/04 04:30:35;;;;;;;6.90;4.18;;;;;;;22.78;49.91;102727.88;5095788;28;20034;-76
2023/09/04 04:33:01;;;;;;;7.03;4.60;;;;;;;22.96;49.80;102726.44;5097674;28;20051;-76
2023/09/04 04:35:26;;;;;;;8.05;4.78;;;;;;;23.12;49.14;102727.72;5095211;28;20078;-76
2023/09/04 04:37:51;;;;;;;6.80;4.68;;;;;;;22.93;49.36;102734.50;5075854;28;20328;-76
2023/09/04 04:40:23;;;;;;;7.68;4.93;;;;;;;22.65;50.56;102738.94;5081889;28;20024;-76
2023/09/04 04:42:48;;;;;;;8.45;4.40;;;;;;;22.97;49.38;102736.16;5093255;28;20379;-76
2023/09/04 04:45:13;;;;;;;7.53;5.28;;;;;;;22.95;49.46;102740.69;5092261;28;20046;-76
2023/09/04 04:47:39;;;;;;;6.63;4.80;;;;;;;23.06;49.13;102733.22;5094323;28;20031;-76
2023/09/04 04:50:05;;;;;;;8.77;5.28;;;;;;;22.76;49.34;102743.06;5090122;28;20036;-78
2023/09/04 04:52:30;;;;;;;10.70;5.30;;;;;;;22.70;50.11;102746.78;5071627;28;20243;-77
2023/09/04 04:54:56;;;;;;;8.63;5.15;;;;;;;22.87;49.66;102747.16;5082301;28;20385;-77
2023/09/04 04:57:21;;;;;;;7.03;4.63;;;;;;;22.87;49.29;102744.47;5092350;28;20030;-77
2023/09/04 04:59:47;;;;;;;8.25;5.43;;;;;;;22.87;49.61;102739.16;5088360;28;20024;-76
2023/09/04 05:02:13;;;;;;;11.63;5.32;;;;;;;22.93;49.47;102731.84;5041635;28;20024;-78
2023/09/04 05:04:44;;;;;;;7.22;4.85;;;;;;;22.98;49.14;102741.44;5055062;28;20028;-76
2023/09/04 05:07:10;;;;;;;7.70;4.93;;;;;;;22.89;49.87;102736.44;5036287;28;20024;-77
2023/09/04 05:09:35;;;;;;;10.35;5.97;;;;;;;23.15;48.92;102738.28;5036374;28;20036;-76
2023/09/04 05:12:01;;;;;;;7.13;4.80;;;;;;;23.20;48.60;102741.66;5035980;28;20024;-77
2023/09/04 05:14:26;;;;;;;11.93;5.70;;;;;;;23.25;48.62;102743.31;5034994;28;20092;-77
2023/09/04 05:16:52;;;;;;;7.35;5.03;;;;;;;22.87;49.93;102741.81;5069721;28;20025;-76
2023/09/04 05:19:17;;;;;;;7.70;4.72;;;;;;;23.35;48.06;102750.06;5072249;28;20048;-77
2023/09/04 05:21:42;;;;;;;8.40;4.65;;;;;;;22.83;49.54;102742.84;5053293;28;20432;-76
2023/09/04 05:24:08;;;;;;;8.95;5.15;;;;;;;23.08;49.58;102744.72;5040311;28;20035;-77
2023/09/04 05:26:33;;;;;;;9.30;5.55;;;;;;;22.91;49.74;102755.03;5060028;28;20024;-77
2023/09/04 05:28:58;;;;;;;10.15;5.03;;;;;;;22.74;50.47;102753.78;5064411;28;20020;-77
2023/09/04 05:31:24;;;;;;;7.68;4.82;;;;;;;23.04;49.51;102748.41;5051075;28;20051;-77
2023/09/04 05:33:49;;;;;;;8.02;5.43;;;;;;;22.93;49.82;102754.06;5046430;28;20035;-77
2023/09/04 05:36:15;;;;;;;11.38;5.65;;;;;;;23.06;49.23;102754.53;5039066;28;20028;-77
2023/09/04 05:38:40;;;;;;;10.00;5.50;;;;;;;22.96;49.71;102763.78;5061553;28;20039;-77
2023/09/04 05:41:05;;;;;;;7.45;5.10;;;;;;;23.31;49.07;102753.75;5063749;28;20040;-76
2023/09/04 05:43:31;;;;;;;9.50;5.38;;;;;;;23.33;49.02;102757.25;5050577;28;20557;-77
2023/09/04 05:45:57;;;;;;;10.70;5.70;;;;;;;23.13;49.24;102745.44;5039581;28;20488;-76
2023/09/04 05:48:22;;;;;;;9.65;5.82;;;;;;;23.29;49.45;102744.94;5041965;28;20028;-76
2023/09/04 05:50:48;;;;;;;9.35;5.80;;;;;;;22.93;49.71;102739.84;5048546;28;20691;-76
2023/09/04 05:53:13;;;;;;;10.20;5.95;;;;;;;23.20;49.06;102739.00;5049162;28;20025;-76
2023/09/04 05:55:40;;;;;;;9.90;6.47;;;;;;;23.11;49.65;102741.03;5047427;28;20023;-76
2023/09/04 05:58:06;;;;;;;8.57;5.85;;;;;;;23.09;49.81;102730.44;5058101;28;20060;-76
2023/09/04 06:00:31;;;;;;;11.00;6.30;;;;;;;23.01;50.25;102729.81;5065743;28;20135;-76
2023/09/04 06:02:59;;;;;;;8.07;5.72;;;;;;;22.59;50.93;102738.28;5073007;28;20533;-76
2023/09/04 06:05:24;;;;;;;11.25;6.43;;;;;;;22.96;50.32;102737.09;5080112;28;20024;-76
2023/09/04 06:07:50;;;;;;;10.38;5.47;;;;;;;23.59;49.03;102734.13;5077264;28;20038;-76
2023/09/04 06:10:15;;;;;;;8.88;5.38;;;;;;;23.73;48.09;102734.53;5086596;28;20038;-76
2023/09/04 06:12:41;;;;;;;12.52;6.07;;;;;;;23.72;48.52;102732.78;5086032;28;20643;-76
2023/09/04 06:15:07;;;;;;;13.13;6.25;;;;;;;23.86;48.14;102741.19;5079505;28;20384;-76
2023/09/04 06:17:32;;;;;;;8.82;5.47;;;;;;;23.65;48.89;102737.44;5083791;28;20036;-77
2023/09/04 06:19:57;;;;;;;10.73;5.88;;;;;;;23.71;47.96;102736.38;5083007;28;20024;-77
2023/09/04 06:22:23;;;;;;;10.07;6.28;;;;;;;23.76;48.55;102734.41;5078296;28;20916;-76
2023/09/04 06:24:49;;;;;;;10.98;6.10;;;;;;;24.00;47.98;102737.13;5082854;28;20127;-77
2023/09/04 06:27:14;;;;;;;11.77;6.18;;;;;;;24.27;47.29;102729.03;5088810;28;20376;-77
2023/09/04 06:29:39;;;;;;;9.52;5.65;;;;;;;24.35;47.53;102726.94;5087699;28;20089;-75
2023/09/04 06:32:05;;;;;;;10.20;5.85;;;;;;;24.49;46.60;102724.59;5077698;28;20024;-75
2023/09/04 06:34:30;;;;;;;13.52;6.95;;;;;;;24.55;46.54;102724.34;5084625;28;20077;-75
2023/09/04 06:36:56;;;;;;;11.25;6.82;;;;;;;23.95;47.22;102729.31;5078007;28;20107;-78
2023/09/04 06:39:21;;;;;;;8.52;6.00;;;;;;;24.22;47.40;102727.41;5079452;28;20031;-75
2023/09/04 06:41:47;;;;;;;10.43;5.55;;;;;;;24.09;47.90;102735.94;5083262;28;20036;-75
2023/09/04 06:44:13;;;;;;;10.77;6.90;;;;;;;24.81;46.60;102719.81;5080814;28;20040;-77
2023/09/04 06:46:39;;;;;;;11.23;6.38;;;;;;;24.82;46.37;102716.19;5080810;28;20032;-75
2023/09/04 06:49:05;;;;;;;8.75;5.45;;;;;;;24.73;46.85;102727.28;5083490;28;20120;-74
2023/09/04 06:51:31;;;;;;;9.57;6.07;;;;;;;25.20;45.80;102723.56;5084614;28;20111;-74
2023/09/04 06:53:57;;;;;;;9.80;6.40;;;;;;;25.29;46.17;102727.66;5085559;28;20107;-77
2023/09/04 06:56:22;;;;;;;8.38;5.55;;;;;;;25.19;46.25;102720.00;5077680;28;20986;-78
2023/09/04 06:58:48;;;;;;;9.65;6.55;;;;;;;25.23;45.50;102721.59;5079813;28;20039;-76
2023/09/04 07:01:14;;;;;;;12.50;6.97;;;;;;;24.94;46.14;102730.00;5083683;28;20048;-74
2023/09/04 07:03:39;;;;;;;10.55;6.63;;;;;;;24.97;46.87;102712.00;5078246;28;20043;-75
2023/09/04 07:06:05;;;;;;;8.70;6.00;;;;;;;25.09;45.99;102718.66;5075597;28;20032;-74
2023/09/04 07:08:31;;;;;;;10.88;6.35;;;;;;;24.92;46.84;102718.50;5073372;28;20559;-75
2023/09/04 07:10:57;;;;;;;9.93;6.70;;;;;;;24.83;47.01;102728.63;5078245;28;20397;-75
2023/09/04 07:13:23;;;;;;;11.63;6.25;;;;;;;25.34;45.89;102723.00;5078034;28;20032;-75
2023/09/04 07:15:48;;;;;;;13.52;6.63;;;;;;;25.53;46.18;102717.72;5082526;28;20032;-75
2023/09/04 07:18:13;;;;;;;12.40;6.88;;;;;;;25.93;44.98;102725.78;5077063;28;20024;-75
2023/09/04 07:20:39;;;;;;;10.77;6.57;;;;;;;25.39;46.10;102721.88;5078452;28;20510;-75
2023/09/04 07:23:05;;;;;;;10.43;6.47;;;;;;;25.82;45.06;102718.25;5081635;28;20020;-75
2023/09/04 07:25:33;;;;;;;9.45;6.00;;;;;;;25.86;45.76;102710.00;5068230;28;20545;-75
2023/09/04 07:27:58;;;;;;;11.85;6.93;;;;;;;25.76;45.56;102711.34;5079601;28;20023;-75
2023/09/04 07:30:24;;;;;;;12.15;6.68;;;;;;;26.38;44.57;102708.56;5076621;28;20020;-75
2023/09/04 07:32:49;;;;;;;12.70;6.30;;;;;;;27.29;43.04;102713.94;5088186;28;20028;-75
2023/09/04 07:35:15;;;;;;;11.43;6.80;;;;;;;27.68;42.59;102716.38;5072824;28;20121;-75
2023/09/04 07:37:40;;;;;;;12.38;6.35;;;;;;;28.78;40.91;102718.44;5078040;28;20029;-76
2023/09/04 07:40:06;;;;;;;9.90;6.10;;;;;;;29.77;39.13;102718.81;5087217;28;20024;-75
2023/09/04 07:42:32;;;;;;;9.70;5.93;;;;;;;29.54;39.00;102722.94;5082121;28;20388;-76
2023/09/04 07:44:57;;;;;;;9.93;5.85;;;;;;;30.34;37.27;102727.84;5076097;28;20024;-75
2023/09/04 07:47:23;;;;;;;8.88;5.53;;;;;;;30.81;36.55;102731.09;5088284;28;20050;-76
2023/09/04 07:49:50;;;;;;;9.10;5.07;;;;;;;31.37;35.95;102732.78;5082674;28;20034;-76
2023/09/04 07:52:15;;;;;;;9.65;5.45;;;;;;;31.37;35.03;102722.00;5088585;28;20028;-76
2023/09/04 07:54:41;;;;;;;7.80;4.93;;;;;;;31.88;33.92;102722.00;5074965;28;20093;-75
2023/09/04 07:57:07;;;;;;;7.82;5.18;;;;;;;31.64;35.46;102713.78;5085810;28;20024;-76
2023/09/04 07:59:33;;;;;;;7.53;5.13;;;;;;;31.70;34.33;102716.06;5087646;28;20032;-76
2023/09/04 08:01:59;;;;;;;7.25;5.03;;;;;;;32.42;33.89;102714.53;5047693;28;20025;-75
2023/09/04 08:04:24;;;;;;;8.35;5.53;;;;;;;32.79;33.23;102717.22;5068810;28;20082;-76
2023/09/04 08:06:50;;;;;;;7.15;4.85;;;;;;;32.83;32.93;102717.88;5050200;28;20033;-75
2023/09/04 08:09:15;;;;;;;9.48;5.20;;;;;;;32.14;33.83;102721.97;5051046;28;20035;-75
2023/09/04 08:11:41;;;;;;;8.63;5.20;;;;;;;33.20;33.47;102725.88;5046773;28;20029;-75
2023/09/04 08:14:06;;;;;;;7.68;5.32;;;;;;;32.71;34.12;102725.06;5046465;28;20028;-75
2023/09/04 08:16:31;;;;;;;8.02;5.13;;;;;;;32.49;34.02;102726.63;5054941;28;20899;-75
2023/09/04 08:18:57;;;;;;;7.93;5.05;;;;;;;31.80;35.36;102740.59;5044114;28;20033;-75
2023/09/04 08:21:22;;;;;;;7.32;5.30;;;;;;;31.61;35.93;102728.41;5061436;28;20039;-76
2023/09/04 08:23:48;;;;;;;7.28;5.20;;;;;;;31.75;35.82;102731.94;5065683;28;20404;-76
2023/09/04 08:26:14;;;;;;;7.60;5.43;;;;;;;31.81;36.14;102736.94;5039021;28;20056;-75
2023/09/04 08:28:40;;;;;;;8.60;5.55;;;;;;;32.26;35.14;102737.31;5043973;28;20492;-75
2023/09/04 08:31:05;;;;;;;10.20;5.63;;;;;;;32.07;35.17;102737.75;5038142;28;20029;-75
2023/09/04 08:33:31;;;;;;;7.05;5.00;;;;;;;31.43;35.97;102735.06;5043328;28;20032;-75
2023/09/04 08:35:56;;;;;;;7.20;5.45;;;;;;;32.76;34.56;102725.59;5052084;28;20480;-76
2023/09/04 08:38:22;;;;;;;10.88;5.82;;;;;;;32.20;34.84;102729.66;5035367;28;20060;-75
2023/09/04 08:40:47;;;;;;;6.18;4.53;;;;;;;33.57;33.58;102729.28;5035237;28;20416;-76
2023/09/04 08:43:16;;;;;;;7.55;5.28;;;;;;;34.17;32.22;102718.22;5054933;28;20032;-76
2023/09/04 08:45:42;;;;;;;9.15;5.55;;;;;;;34.02;32.59;102723.06;5054267;28;20032;-75
2023/09/04 08:48:11;;;;;;;8.32;5.25;;;;;;;34.63;31.56;102711.69;5039195;28;20017;-76
2023/09/04 08:50:37;;;;;;;8.60;5.40;;;;;;;34.92;31.19;102716.53;5047911;28;20031;-76
2023/09/04 08:53:03;;;;;;;6.22;4.50;;;;;;;34.83;30.69;102722.78;5049802;28;20029;-76
2023/09/04 08:55:29;;;;;;;7.80;5.15;;;;;;;33.86;32.30;102720.72;5034324;28;20032;-75
2023/09/04 08:57:54;;;;;;;8.18;5.00;;;;;;;35.48;31.04;102714.50;5065098;28;20550;-77
2023/09/04 09:00:20;;;;;;;8.80;6.07;;;;;;;34.61;31.82;102719.13;5064741;28;20455;-76
2023/09/04 09:02:46;;;;;;;8.13;5.25;;;;;;;33.69;32.77;102721.16;5067302;28;20033;-77
2023/09/04 09:05:17;;;;;;;7.57;5.30;;;;;;;33.42;33.78;102715.09;5043074;28;20049;-77
2023/09/04 09:07:44;;;;;;;7.85;5.72;;;;;;;33.30;33.26;102716.94;5052165;28;20040;-77
2023/09/04 09:10:15;;;;;;;7.85;5.20;;;;;;;33.70;33.01;102717.47;5035626;28;20056;-77
2023/09/04 09:12:40;;;;;;;8.43;6.03;;;;;;;33.58;33.10;102712.03;5057328;28;20084;-77
2023/09/04 09:15:06;;;;;;;9.60;5.60;;;;;;;32.85;34.25;102705.94;5053990;28;20123;-77
2023/09/04 09:17:31;;;;;;;9.32;5.90;;;;;;;32.39;34.96;102709.38;5054968;28;20032;-77
2023/09/04 09:19:57;;;;;;;8.23;6.15;;;;;;;31.42;36.95;102714.41;5050375;28;20025;-77
2023/09/04 09:22:22;;;;;;;10.80;5.75;;;;;;;31.71;36.29;102703.41;5059859;28;20029;-77
2023/09/04 09:24:59;;;;;;;8.73;5.47;;;;;;;31.52;36.27;102704.69;5052494;28;20044;-77
2023/09/04 09:27:26;;;;;;;8.55;5.47;;;;;;;32.71;35.25;102698.84;5036637;28;20024;-77
2023/09/04 09:29:54;;;;;;;9.25;6.20;;;;;;;33.10;34.55;102706.75;5035560;28;20020;-78
2023/09/04 09:32:20;;;;;;;8.10;5.65;;;;;;;33.44;34.05;102690.59;5041033;28;20033;-77
2023/09/04 09:34:53;;;;;;;8.70;5.25;;;;;;;33.60;34.22;102696.50;5048375;28;20028;-77
2023/09/04 09:37:20;;;;;;;10.88;6.72;;;;;;;33.74;34.01;102687.25;5037551;28;20100;-77
2023/09/04 09:39:46;;;;;;;9.00;5.55;;;;;;;33.93;34.20;102686.69;5034168;28;20495;-76
2023/09/04 09:42:12;;;;;;;8.20;5.75;;;;;;;34.10;32.75;102690.75;5047784;28;20043;-77
2023/09/04 09:44:38;;;;;;;9.13;5.60;;;;;;;34.34;33.19;102683.44;5054984;28;20020;-77
2023/09/04 09:47:07;;;;;;;8.18;5.82;;;;;;;34.07;33.71;102687.41;5063480;28;20036;-77
2023/09/04 09:49:36;;;;;;;10.02;5.18;;;;;;;33.60;33.92;102680.25;5055284;28;20028;-76
2023/09/04 09:52:01;;;;;;;8.38;5.25;;;;;;;33.76;33.28;102679.03;5072869;28;20028;-77
2023/09/04 09:54:47;;;;;;;10.50;5.43;;;;;;;33.39;33.68;102681.97;5051961;28;20025;-77
2023/09/04 09:57:15;;;;;;;7.50;5.05;;;;;;;33.66;33.58;102678.88;5039201;28;20295;-75
2023/09/04 09:59:50;;;;;;;8.57;4.97;;;;;;;34.01;33.83;102682.50;5064326;28;20397;-75
2023/09/04 10:02:21;;;;;;;10.18;6.03;;;;;;;33.50;33.74;102673.84;5050888;28;20043;-75
2023/09/04 10:04:47;;;;;;;7.93;5.18;;;;;;;33.10;34.44;102668.84;5060617;28;20025;-75
2023/09/04 10:07:16;;;;;;;12.45;5.70;;;;;;;32.45;35.29;102660.19;5044123;28;20055;-75
2023/09/04 10:09:48;;;;;;;10.50;5.85;;;;;;;32.63;35.46;102661.53;5044830;28;20044;-74
2023/09/04 10:12:20;;;;;;;10.57;6.20;;;;;;;32.64;34.54;102651.53;5047722;28;20028;-75
2023/09/04 10:14:48;;;;;;;10.35;5.47;;;;;;;31.34;37.12;102662.75;5051557;28;20036;-75
2023/09/04 10:17:32;;;;;;;20.88;5.65;;;;;;;32.84;35.57;102647.34;5050090;28;20036;-74
2023/09/04 10:20:02;;;;;;;8.25;5.10;;;;;;;32.55;35.88;102655.81;5068203;28;20039;-74
2023/09/04 10:22:59;;;;;;;7.55;5.38;;;;;;;32.59;35.44;102643.78;5062191;28;20035;-75
2023/09/04 10:26:06;;;;;;;10.10;6.32;;;;;;;32.83;36.27;102651.03;5068547;28;20464;-75
2023/09/04 10:28:36;;;;;;;9.02;5.97;;;;;;;32.54;35.71;102640.56;5037348;28;20044;-74
2023/09/04 10:31:03;;;;;;;8.15;5.00;;;;;;;32.35;36.19;102661.88;5069162;28;20055;-75
2023/09/04 10:33:29;;;;;;;9.20;5.90;;;;;;;31.73;37.70;102658.25;5063521;28;20021;-75
2023/09/04 10:35:54;;;;;;;9.75;6.20;;;;;;;32.55;36.38;102653.13;5044440;28;20055;-75
2023/09/04 10:38:22;;;;;;;6.65;5.10;;;;;;;33.22;35.33;102646.22;5064756;28;20039;-75
2023/09/04 10:40:48;;;;;;;9.60;5.88;;;;;;;32.13;35.99;102637.25;5068702;28;20035;-75
2023/09/04 10:43:14;;;;;;;8.45;5.18;;;;;;;32.02;36.32;102630.91;5057696;28;20029;-76
2023/09/04 10:45:39;;;;;;;9.50;5.15;;;;;;;32.81;35.99;102632.22;5066878;28;20083;-75
2023/09/04 10:48:05;;;;;;;8.43;5.30;;;;;;;32.72;35.64;102626.66;5078821;28;20036;-75
2023/09/04 10:50:35;;;;;;;7.90;5.32;;;;;;;32.47;35.37;102621.22;5049672;28;20567;-75
2023/09/04 10:53:02;;;;;;;14.18;5.25;;;;;;;32.24;36.31;102627.50;5053594;28;20086;-75
2023/09/04 10:55:28;;;;;;;7.80;4.82;;;;;;;32.73;35.28;102631.09;5043675;28;20494;-75
2023/09/04 10:58:00;;;;;;;7.38;4.18;;;;;;;32.72;34.70;102627.50;5051418;28;20035;-76
2023/09/04 11:00:39;;;;;;;7.90;4.40;;;;;;;33.18;33.86;102625.78;5063209;28;20048;-76
2023/09/04 11:03:18;;;;;;;6.35;4.28;;;;;;;33.06;33.24;102621.31;5079568;28;20023;-75
2023/09/04 11:06:02;;;;;;;6.18;4.63;;;;;;;31.91;34.63;102619.03;5087604;28;20031;-75
2023/09/04 11:08:29;;;;;;;6.57;4.65;;;;;;;31.91;36.04;102613.63;5101473;28;20035;-75
2023/09/04 11:11:05;;;;;;;6.78;3.85;;;;;;;32.51;34.69;102607.44;5096022;28;20043;-76
2023/09/04 11:13:37;;;;;;;4.75;3.90;;;;;;;32.74;34.91;102611.13;5077587;28;20280;-76
2023/09/04 11:16:03;;;;;;;;;;;;;;;33.84;32.54;102603.38;5085307;28;20039;-76
2023/09/04 11:18:29;;;;;;;6.65;4.03;;;;;;;33.51;32.27;102599.72;5076149;28;19915;-75
2023/09/04 11:20:56;;;;;;;7.05;3.70;;;;;;;33.65;33.01;102596.72;5085259;28;20032;-76
2023/09/04 11:23:25;;;;;;;9.07;3.92;;;;;;;33.69;32.50;102604.59;5087819;28;21385;-75